Potomac, Montana
Current Conditions -  °F | °C
As of 2:53 PM on Wednesday 28 Jan 2015 (Local Time) from KMSO Reporting Station
Few Clouds Few Clouds  
Wind Chill: 45°   Ceiling: Unl
Heat Index: 45°   Visibility: 10mi
Dew Point: 30°   Wind: 3mph
Humidity: 56%   Direction: 330°NNW
Pressure: 30.32"   Gusts: NA
Location:  46.8727°N, 113.587°W
Report Text: KMSO 282153Z AUTO 33003KT 10SM FEW060 07/M01 A3032 RMK AO2 SLP293 T00721011 TSNO
Loading
Personal Weather Stations






























Interactive Weather Map New forecast layout! Learn more

10-Day Weather Forecast

Advertisements
Track Severe Weather on mobile